sensor_id;sensor_type;location;lat;lon;timestamp;pressure;altitude;pressure_sealevel;temperature
65272;BMP280;51868;48.812;8.198;2023-07-22T09:15:39;100349.66;;;25.43
65272;BMP280;51868;48.812;8.198;2023-07-22T09:18:07;100346.53;;;25.59
65272;BMP280;51868;48.812;8.198;2023-07-22T09:20:34;100341.28;;;25.76
65272;BMP280;51868;48.812;8.198;2023-07-22T09:23:02;100353.06;;;25.93
65272;BMP280;51868;48.812;8.198;2023-07-22T09:25:39;100348.44;;;26.12
65272;BMP280;51868;48.812;8.198;2023-07-22T09:28:07;100346.13;;;26.21
65272;BMP280;51868;48.812;8.198;2023-07-22T09:30:35;100342.47;;;26.26
65272;BMP280;51868;48.812;8.198;2023-07-22T09:33:19;100346.69;;;26.29
65272;BMP280;51868;48.812;8.198;2023-07-22T09:35:56;100335.00;;;26.46
65272;BMP280;51868;48.812;8.198;2023-07-22T09:38:24;100341.25;;;26.52
65272;BMP280;51868;48.812;8.198;2023-07-22T09:40:56;100343.41;;;26.50
65272;BMP280;51868;48.812;8.198;2023-07-22T09:43:23;100335.50;;;26.54
65272;BMP280;51868;48.812;8.198;2023-07-22T09:45:51;100334.50;;;26.68
65272;BMP280;51868;48.812;8.198;2023-07-22T09:48:22;100332.00;;;26.85
65272;BMP280;51868;48.812;8.198;2023-07-22T09:50:55;100333.72;;;27.03
65272;BMP280;51868;48.812;8.198;2023-07-22T09:53:22;100325.56;;;27.15
65272;BMP280;51868;48.812;8.198;2023-07-22T09:55:52;100330.34;;;27.25
65272;BMP280;51868;48.812;8.198;2023-07-22T09:58:19;100325.88;;;27.32
65272;BMP280;51868;48.812;8.198;2023-07-22T10:00:48;100337.84;;;27.39
65272;BMP280;51868;48.812;8.198;2023-07-22T10:03:16;100324.09;;;27.45
65272;BMP280;51868;48.812;8.198;2023-07-22T10:05:52;100328.06;;;27.59
65272;BMP280;51868;48.812;8.198;2023-07-22T10:08:21;100320.53;;;27.74
65272;BMP280;51868;48.812;8.198;2023-07-22T10:10:53;100327.56;;;27.77
65272;BMP280;51868;48.812;8.198;2023-07-22T10:13:21;100323.97;;;27.51
65272;BMP280;51868;48.812;8.198;2023-07-22T10:15:49;100333.25;;;27.23
65272;BMP280;51868;48.812;8.198;2023-07-22T10:18:20;100337.19;;;27.07
65272;BMP280;51868;48.812;8.198;2023-07-22T10:20:48;100329.00;;;26.91
65272;BMP280;51868;48.812;8.198;2023-07-22T10:23:18;100331.81;;;26.93
65272;BMP280;51868;48.812;8.198;2023-07-22T10:25:45;100326.97;;;26.85
65272;BMP280;51868;48.812;8.198;2023-07-22T10:28:13;100331.44;;;26.76
65272;BMP280;51868;48.812;8.198;2023-07-22T10:30:41;100342.94;;;26.72
65272;BMP280;51868;48.812;8.198;2023-07-22T10:33:09;100331.09;;;26.61
65272;BMP280;51868;48.812;8.198;2023-07-22T10:35:40;100333.38;;;26.53
65272;BMP280;51868;48.812;8.198;2023-07-22T10:38:08;100335.00;;;26.46
65272;BMP280;51868;48.812;8.198;2023-07-22T10:40:45;100326.59;;;26.37
65272;BMP280;51868;48.812;8.198;2023-07-22T10:43:14;100334.50;;;26.33
65272;BMP280;51868;48.812;8.198;2023-07-22T10:45:48;100322.91;;;26.45
65272;BMP280;51868;48.812;8.198;2023-07-22T10:48:18;100321.22;;;26.56
65272;BMP280;51868;48.812;8.198;2023-07-22T10:50:46;100326.19;;;26.56
65272;BMP280;51868;48.812;8.198;2023-07-22T10:53:19;100326.47;;;26.44
65272;BMP280;51868;48.812;8.198;2023-07-22T10:56:05;100320.00;;;26.47
65272;BMP280;51868;48.812;8.198;2023-07-22T10:58:33;100319.22;;;26.51
65272;BMP280;51868;48.812;8.198;2023-07-22T11:04:10;100314.81;;;26.56
65272;BMP280;51868;48.812;8.198;2023-07-22T11:06:38;100317.16;;;26.47
65272;BMP280;51868;48.812;8.198;2023-07-22T11:09:19;100309.31;;;26.48
65272;BMP280;51868;48.812;8.198;2023-07-22T11:12:04;100302.81;;;26.84
65272;BMP280;51868;48.812;8.198;2023-07-22T11:14:33;100303.31;;;27.22
65272;BMP280;51868;48.812;8.198;2023-07-22T11:17:02;100292.06;;;27.45
65272;BMP280;51868;48.812;8.198;2023-07-22T11:19:31;100301.38;;;27.43
65272;BMP280;51868;48.812;8.198;2023-07-22T11:22:08;100301.19;;;27.49
65272;BMP280;51868;48.812;8.198;2023-07-22T11:24:36;100303.88;;;27.29
65272;BMP280;51868;48.812;8.198;2023-07-22T11:27:13;100298.41;;;27.20
65272;BMP280;51868;48.812;8.198;2023-07-22T11:29:41;100299.69;;;27.26
65272;BMP280;51868;48.812;8.198;2023-07-22T11:32:17;100295.66;;;27.16
65272;BMP280;51868;48.812;8.198;2023-07-22T11:34:44;100297.84;;;27.14
65272;BMP280;51868;48.812;8.198;2023-07-22T11:37:12;100298.72;;;27.06
65272;BMP280;51868;48.812;8.198;2023-07-22T11:39:41;100294.72;;;27.24
65272;BMP280;51868;48.812;8.198;2023-07-22T11:42:11;100283.41;;;27.49
65272;BMP280;51868;48.812;8.198;2023-07-22T11:44:39;100280.78;;;27.68
65272;BMP280;51868;48.812;8.198;2023-07-22T11:47:07;100272.34;;;27.89
65272;BMP280;51868;48.812;8.198;2023-07-22T11:49:35;100282.06;;;27.98
65272;BMP280;51868;48.812;8.198;2023-07-22T11:52:04;100277.63;;;28.03
65272;BMP280;51868;48.812;8.198;2023-07-22T11:54:36;100271.06;;;28.08
65272;BMP280;51868;48.812;8.198;2023-07-22T11:57:12;100275.00;;;28.20
65272;BMP280;51868;48.812;8.198;2023-07-22T11:59:42;100274.81;;;28.26
65272;BMP280;51868;48.812;8.198;2023-07-22T12:02:12;100257.50;;;28.32
65272;BMP280;51868;48.812;8.198;2023-07-22T12:04:51;100265.13;;;28.40
65272;BMP280;51868;48.812;8.198;2023-07-22T12:07:22;100262.72;;;28.48
65272;BMP280;51868;48.812;8.198;2023-07-22T12:09:49;100258.91;;;28.56
65272;BMP280;51868;48.812;8.198;2023-07-22T12:12:18;100254.47;;;28.38
65272;BMP280;51868;48.812;8.198;2023-07-22T12:14:46;100265.00;;;28.21
65272;BMP280;51868;48.812;8.198;2023-07-22T12:17:14;100260.59;;;28.01
65272;BMP280;51868;48.812;8.198;2023-07-22T12:19:50;100259.97;;;27.98
65272;BMP280;51868;48.812;8.198;2023-07-22T12:22:18;100248.09;;;27.90
65272;BMP280;51868;48.812;8.198;2023-07-22T12:24:46;100253.25;;;27.83
65272;BMP280;51868;48.812;8.198;2023-07-22T12:27:14;100250.59;;;27.75
65272;BMP280;51868;48.812;8.198;2023-07-22T12:29:43;100250.03;;;27.70
65272;BMP280;51868;48.812;8.198;2023-07-22T12:32:11;100249.81;;;27.78
65272;BMP280;51868;48.812;8.198;2023-07-22T12:34:38;100237.00;;;28.02
65272;BMP280;51868;48.812;8.198;2023-07-22T12:37:06;100231.75;;;28.34
65272;BMP280;51868;48.812;8.198;2023-07-22T12:39:44;100233.59;;;28.66
65272;BMP280;51868;48.812;8.198;2023-07-22T12:42:11;100223.53;;;28.90
65272;BMP280;51868;48.812;8.198;2023-07-22T12:44:39;100228.41;;;28.94
65272;BMP280;51868;48.812;8.198;2023-07-22T12:47:08;100222.34;;;29.04
65272;BMP280;51868;48.812;8.198;2023-07-22T12:49:36;100217.81;;;29.11
65272;BMP280;51868;48.812;8.198;2023-07-22T12:52:04;100216.09;;;29.00
65272;BMP280;51868;48.812;8.198;2023-07-22T12:54:35;100226.22;;;28.94
65272;BMP280;51868;48.812;8.198;2023-07-22T12:57:02;100216.81;;;28.98
65272;BMP280;51868;48.812;8.198;2023-07-22T12:59:30;100205.78;;;29.09
65272;BMP280;51868;48.812;8.198;2023-07-22T13:01:58;100214.38;;;29.28
65272;BMP280;51868;48.812;8.198;2023-07-22T13:04:33;100207.50;;;29.39
65272;BMP280;51868;48.812;8.198;2023-07-22T13:07:00;100206.38;;;29.32
65272;BMP280;51868;48.812;8.198;2023-07-22T13:09:28;100207.69;;;29.14
65272;BMP280;51868;48.812;8.198;2023-07-22T13:11:55;100211.19;;;28.96
65272;BMP280;51868;48.812;8.198;2023-07-22T13:14:23;100215.72;;;28.89
65272;BMP280;51868;48.812;8.198;2023-07-22T13:16:51;100211.59;;;28.84
65272;BMP280;51868;48.812;8.198;2023-07-22T13:19:18;100201.91;;;28.75
65272;BMP280;51868;48.812;8.198;2023-07-22T13:21:47;100194.97;;;28.70
65272;BMP280;51868;48.812;8.198;2023-07-22T13:24:15;100196.31;;;28.71
65272;BMP280;51868;48.812;8.198;2023-07-22T13:26:42;100203.16;;;28.80
65272;BMP280;51868;48.812;8.198;2023-07-22T13:29:10;100202.41;;;28.81
65272;BMP280;51868;48.812;8.198;2023-07-22T13:31:38;100199.88;;;28.71
65272;BMP280;51868;48.812;8.198;2023-07-22T13:34:06;100210.78;;;28.64
65272;BMP280;51868;48.812;8.198;2023-07-22T13:36:33;100198.63;;;28.66
65272;BMP280;51868;48.812;8.198;2023-07-22T13:39:03;100202.81;;;28.69
65272;BMP280;51868;48.812;8.198;2023-07-22T13:41:31;100191.78;;;28.57
65272;BMP280;51868;48.812;8.198;2023-07-22T13:43:59;100199.78;;;28.52
65272;BMP280;51868;48.812;8.198;2023-07-22T13:46:26;100186.72;;;28.59
65272;BMP280;51868;48.812;8.198;2023-07-22T13:48:54;100191.53;;;28.65
65272;BMP280;51868;48.812;8.198;2023-07-22T13:51:22;100191.53;;;28.65
65272;BMP280;51868;48.812;8.198;2023-07-22T13:53:49;100189.69;;;28.55
65272;BMP280;51868;48.812;8.198;2023-07-22T13:56:19;100193.63;;;28.44
65272;BMP280;51868;48.812;8.198;2023-07-22T13:58:47;100190.44;;;28.33
65272;BMP280;51868;48.812;8.198;2023-07-22T14:01:14;100189.34;;;28.22
65272;BMP280;51868;48.812;8.198;2023-07-22T14:03:42;100188.97;;;28.11
65272;BMP280;51868;48.812;8.198;2023-07-22T14:06:12;100187.19;;;27.99
65272;BMP280;51868;48.812;8.198;2023-07-22T14:08:41;100182.28;;;27.96
65272;BMP280;51868;48.812;8.198;2023-07-22T14:11:13;100172.94;;;27.99
65272;BMP280;51868;48.812;8.198;2023-07-22T14:13:42;100177.94;;;27.99
65272;BMP280;51868;48.812;8.198;2023-07-22T14:16:10;100178.47;;;28.05
65272;BMP280;51868;48.812;8.198;2023-07-22T14:18:50;100173.31;;;28.10
65272;BMP280;51868;48.812;8.198;2023-07-22T14:21:19;100171.91;;;28.09
65272;BMP280;51868;48.812;8.198;2023-07-22T14:23:46;100168.31;;;28.11
65272;BMP280;51868;48.812;8.198;2023-07-22T14:26:14;100169.84;;;28.07
65272;BMP280;51868;48.812;8.198;2023-07-22T14:28:43;100175.59;;;28.05
65272;BMP280;51868;48.812;8.198;2023-07-22T14:31:15;100168.47;;;28.04
65272;BMP280;51868;48.812;8.198;2023-07-22T14:33:43;100163.41;;;28.07
65272;BMP280;51868;48.812;8.198;2023-07-22T14:36:11;100160.47;;;28.09
65272;BMP280;51868;48.812;8.198;2023-07-22T14:38:39;100173.38;;;28.08
65272;BMP280;51868;48.812;8.198;2023-07-22T14:41:07;100168.41;;;28.06
65272;BMP280;51868;48.812;8.198;2023-07-22T14:43:38;100171.22;;;28.08
65272;BMP280;51868;48.812;8.198;2023-07-22T14:46:07;100165.50;;;28.08
65272;BMP280;51868;48.812;8.198;2023-07-22T14:48:35;100161.19;;;28.09
65272;BMP280;51868;48.812;8.198;2023-07-22T14:51:06;100154.78;;;28.09
65272;BMP280;51868;48.812;8.198;2023-07-22T14:53:33;100167.72;;;28.06
65272;BMP280;51868;48.812;8.198;2023-07-22T14:56:01;100165.63;;;28.04
65272;BMP280;51868;48.812;8.198;2023-07-22T14:58:31;100157.78;;;28.05
65272;BMP280;51868;48.812;8.198;2023-07-22T15:00:58;100156.31;;;28.06
65272;BMP280;51868;48.812;8.198;2023-07-22T15:03:30;100140.47;;;28.11
65272;BMP280;51868;48.812;8.198;2023-07-22T15:05:58;100143.94;;;28.14
65272;BMP280;51868;48.812;8.198;2023-07-22T15:08:25;100151.19;;;28.11
65272;BMP280;51868;48.812;8.198;2023-07-22T15:10:53;100156.38;;;28.04
65272;BMP280;51868;48.812;8.198;2023-07-22T15:13:21;100160.00;;;28.02
65272;BMP280;51868;48.812;8.198;2023-07-22T15:22:07;100155.47;;;27.87
65272;BMP280;51868;48.812;8.198;2023-07-22T15:24:37;100161.88;;;27.87
65272;BMP280;51868;48.812;8.198;2023-07-22T15:27:11;100148.44;;;27.84
65272;BMP280;51868;48.812;8.198;2023-07-22T15:29:41;100151.94;;;27.86
65272;BMP280;51868;48.812;8.198;2023-07-22T15:32:14;100157.50;;;27.90
65272;BMP280;51868;48.812;8.198;2023-07-22T15:34:42;100152.56;;;27.89
65272;BMP280;51868;48.812;8.198;2023-07-22T15:37:17;100151.13;;;27.90
65272;BMP280;51868;48.812;8.198;2023-07-22T15:39:48;100147.47;;;27.91
65272;BMP280;51868;48.812;8.198;2023-07-22T15:42:34;100151.38;;;28.04
65272;BMP280;51868;48.812;8.198;2023-07-22T15:45:06;100148.25;;;28.13
65272;BMP280;51868;48.812;8.198;2023-07-22T15:48:03;100153.75;;;28.19
65272;BMP280;51868;48.812;8.198;2023-07-22T15:57:39;100157.84;;;28.03
65272;BMP280;51868;48.812;8.198;2023-07-22T16:10:00;100147.25;;;27.99
65272;BMP280;51868;48.812;8.198;2023-07-22T16:12:49;100148.63;;;28.00
65272;BMP280;51868;48.812;8.198;2023-07-22T16:15:47;100142.91;;;28.00
65272;BMP280;51868;48.812;8.198;2023-07-22T16:18:33;100148.78;;;27.96
65272;BMP280;51868;48.812;8.198;2023-07-22T16:21:01;100139.06;;;27.87
65272;BMP280;51868;48.812;8.198;2023-07-22T16:23:30;100146.22;;;27.86
65272;BMP280;51868;48.812;8.198;2023-07-22T16:26:13;100136.97;;;27.86
65272;BMP280;51868;48.812;8.198;2023-07-22T16:28:43;100134.84;;;27.84
65272;BMP280;51868;48.812;8.198;2023-07-22T16:31:26;100137.88;;;27.80
65272;BMP280;51868;48.812;8.198;2023-07-22T16:34:01;100137.97;;;27.76
65272;BMP280;51868;48.812;8.198;2023-07-22T16:36:41;100141.06;;;27.68
65272;BMP280;51868;48.812;8.198;2023-07-22T16:39:16;100139.84;;;27.61
65272;BMP280;51868;48.812;8.198;2023-07-22T16:42:14;100137.94;;;27.53
65272;BMP280;51868;48.812;8.198;2023-07-22T16:44:46;100136.00;;;27.45
65272;BMP280;51868;48.812;8.198;2023-07-22T16:47:19;100136.06;;;27.43
65272;BMP280;51868;48.812;8.198;2023-07-22T16:53:04;100139.78;;;27.38
65272;BMP280;51868;48.812;8.198;2023-07-22T16:55:33;100132.81;;;27.33
65272;BMP280;51868;48.812;8.198;2023-07-22T16:58:02;100140.78;;;27.28
65272;BMP280;51868;48.812;8.198;2023-07-22T17:00:32;100143.00;;;27.26
65272;BMP280;51868;48.812;8.198;2023-07-22T17:03:20;100135.88;;;27.24
65272;BMP280;51868;48.812;8.198;2023-07-22T17:06:09;100121.78;;;27.20
65272;BMP280;51868;48.812;8.198;2023-07-22T17:08:55;100126.81;;;27.18
65272;BMP280;51868;48.812;8.198;2023-07-22T17:11:23;100121.91;;;27.14
65272;BMP280;51868;48.812;8.198;2023-07-22T17:13:57;100114.13;;;27.13
65272;BMP280;51868;48.812;8.198;2023-07-22T17:16:46;100121.34;;;27.10
65272;BMP280;51868;48.812;8.198;2023-07-22T17:19:45;100114.19;;;27.11
65272;BMP280;51868;48.812;8.198;2023-07-22T17:22:21;100121.34;;;27.10
65272;BMP280;51868;48.812;8.198;2023-07-22T17:24:53;100112.81;;;27.10
65272;BMP280;51868;48.812;8.198;2023-07-22T17:27:21;100118.53;;;27.08
65272;BMP280;51868;48.812;8.198;2023-07-22T17:29:49;100106.47;;;27.07
65272;BMP280;51868;48.812;8.198;2023-07-22T17:32:18;100111.56;;;27.03
65272;BMP280;51868;48.812;8.198;2023-07-22T17:34:48;100099.53;;;27.00
65272;BMP280;51868;48.812;8.198;2023-07-22T17:37:24;100110.28;;;26.98
65272;BMP280;51868;48.812;8.198;2023-07-22T17:42:44;100104.72;;;26.91
65272;BMP280;51868;48.812;8.198;2023-07-22T17:52:25;100089.22;;;26.86
65272;BMP280;51868;48.812;8.198;2023-07-22T17:57:42;100084.41;;;26.79
65272;BMP280;51868;48.812;8.198;2023-07-22T18:00:10;100088.84;;;26.74
65272;BMP280;51868;48.812;8.198;2023-07-22T18:02:38;100091.13;;;26.67
65272;BMP280;51868;48.812;8.198;2023-07-22T18:05:06;100079.22;;;26.60
65272;BMP280;51868;48.812;8.198;2023-07-22T18:07:36;100086.47;;;26.55
65272;BMP280;51868;48.812;8.198;2023-07-22T18:10:04;100085.81;;;26.53
65272;BMP280;51868;48.812;8.198;2023-07-22T18:12:32;100093.06;;;26.48
65272;BMP280;51868;48.812;8.198;2023-07-22T18:15:00;100093.84;;;26.44
65272;BMP280;51868;48.812;8.198;2023-07-22T18:17:27;100080.50;;;26.38
65272;BMP280;51868;48.812;8.198;2023-07-22T18:19:56;100087.69;;;26.35
65272;BMP280;51868;48.812;8.198;2023-07-22T18:22:23;100086.31;;;26.32
65272;BMP280;51868;48.812;8.198;2023-07-22T18:24:53;100086.47;;;26.26
65272;BMP280;51868;48.812;8.198;2023-07-22T18:27:20;100085.16;;;26.21
65272;BMP280;51868;48.812;8.198;2023-07-22T18:29:49;100079.53;;;26.19
65272;BMP280;51868;48.812;8.198;2023-07-22T18:32:19;100082.47;;;26.15
65272;BMP280;51868;48.812;8.198;2023-07-22T18:34:48;100088.25;;;26.11
65272;BMP280;51868;48.812;8.198;2023-07-22T18:37:16;100091.19;;;26.07
65272;BMP280;51868;48.812;8.198;2023-07-22T18:39:44;100091.25;;;26.03
65272;BMP280;51868;48.812;8.198;2023-07-22T18:42:14;100087.78;;;26.00
65272;BMP280;51868;48.812;8.198;2023-07-22T18:44:43;100087.88;;;25.96
65272;BMP280;51868;48.812;8.198;2023-07-22T18:47:11;100085.16;;;25.92
65272;BMP280;51868;48.812;8.198;2023-07-22T18:49:39;100080.19;;;25.91
65272;BMP280;51868;48.812;8.198;2023-07-22T18:52:07;100090.22;;;25.88
65272;BMP280;51868;48.812;8.198;2023-07-22T18:54:34;100097.38;;;25.84
65272;BMP280;51868;48.812;8.198;2023-07-22T18:57:02;100091.72;;;25.82
65272;BMP280;51868;48.812;8.198;2023-07-22T18:59:32;100082.63;;;25.78
65272;BMP280;51868;48.812;8.198;2023-07-22T19:01:59;100089.78;;;25.73
65272;BMP280;51868;48.812;8.198;2023-07-22T19:04:27;100092.03;;;25.68
65272;BMP280;51868;48.812;8.198;2023-07-22T19:06:57;100095.63;;;25.67
65272;BMP280;51868;48.812;8.198;2023-07-22T19:09:25;100096.41;;;25.63
65272;BMP280;51868;48.812;8.198;2023-07-22T19:11:56;100090.13;;;25.59
65272;BMP280;51868;48.812;8.198;2023-07-22T19:14:24;100092.38;;;25.52
65272;BMP280;51868;48.812;8.198;2023-07-22T19:16:56;100100.25;;;25.49
65272;BMP280;51868;48.812;8.198;2023-07-22T19:19:24;100094.63;;;25.45
65272;BMP280;51868;48.812;8.198;2023-07-22T19:21:52;100093.97;;;25.43
65272;BMP280;51868;48.812;8.198;2023-07-22T19:24:21;100096.97;;;25.37
65272;BMP280;51868;48.812;8.198;2023-07-22T19:26:49;100096.38;;;25.30
65272;BMP280;51868;48.812;8.198;2023-07-22T19:29:17;100100.00;;;25.24
65272;BMP280;51868;48.812;8.198;2023-07-22T19:31:44;100094.47;;;25.18
65272;BMP280;51868;48.812;8.198;2023-07-22T19:34:14;100095.31;;;25.11
65272;BMP280;51868;48.812;8.198;2023-07-22T19:36:43;100099.03;;;25.03
65272;BMP280;51868;48.812;8.198;2023-07-22T19:39:11;100105.53;;;24.95
65272;BMP280;51868;48.812;8.198;2023-07-22T19:41:39;100109.16;;;24.90
65272;BMP280;51868;48.812;8.198;2023-07-22T19:44:08;100111.38;;;24.85
65272;BMP280;51868;48.812;8.198;2023-07-22T19:46:35;100112.88;;;24.80
65272;BMP280;51868;48.812;8.198;2023-07-22T19:49:04;100115.09;;;24.75
65272;BMP280;51868;48.812;8.198;2023-07-22T19:51:33;100116.63;;;24.70
65272;BMP280;51868;48.812;8.198;2023-07-22T19:54:01;100122.38;;;24.64
65272;BMP280;51868;48.812;8.198;2023-07-22T19:56:29;100113.22;;;24.60
65272;BMP280;51868;48.812;8.198;2023-07-22T19:58:56;100128.91;;;24.55
65272;BMP280;51868;48.812;8.198;2023-07-22T20:01:24;100125.47;;;24.48
65272;BMP280;51868;48.812;8.198;2023-07-22T20:03:52;100126.97;;;24.43
65272;BMP280;51868;48.812;8.198;2023-07-22T20:06:20;100129.22;;;24.36
65272;BMP280;51868;48.812;8.198;2023-07-22T20:08:50;100119.38;;;24.29
65272;BMP280;51868;48.812;8.198;2023-07-22T20:11:18;100120.88;;;24.24
65272;BMP280;51868;48.812;8.198;2023-07-22T20:13:46;100121.63;;;24.18
65272;BMP280;51868;48.812;8.198;2023-07-22T20:16:14;100124.53;;;24.14
65272;BMP280;51868;48.812;8.198;2023-07-22T20:18:43;100130.22;;;24.12
65272;BMP280;51868;48.812;8.198;2023-07-22T20:21:11;100126.06;;;24.07
65272;BMP280;51868;48.812;8.198;2023-07-22T20:23:39;100123.31;;;24.01
65272;BMP280;51868;48.812;8.198;2023-07-22T20:26:11;100121.94;;;23.96
65272;BMP280;51868;48.812;8.198;2023-07-22T20:28:39;100134.72;;;23.93
65272;BMP280;51868;48.812;8.198;2023-07-22T20:31:11;100122.06;;;23.88
65272;BMP280;51868;48.812;8.198;2023-07-22T20:33:39;100132.72;;;23.85
65272;BMP280;51868;48.812;8.198;2023-07-22T20:36:06;100129.94;;;23.81
65272;BMP280;51868;48.812;8.198;2023-07-22T20:38:36;100127.13;;;23.79
65272;BMP280;51868;48.812;8.198;2023-07-22T20:41:04;100119.38;;;23.76
65272;BMP280;51868;48.812;8.198;2023-07-22T20:43:33;100120.81;;;23.73
65272;BMP280;51868;48.812;8.198;2023-07-22T20:46:01;100118.72;;;23.71
65272;BMP280;51868;48.812;8.198;2023-07-22T20:48:31;100123.00;;;23.70
65272;BMP280;51868;48.812;8.198;2023-07-22T20:50:59;100123.69;;;23.69
65272;BMP280;51868;48.812;8.198;2023-07-22T20:53:27;100125.13;;;23.70
65272;BMP280;51868;48.812;8.198;2023-07-22T20:55:56;100122.28;;;23.70
65272;BMP280;51868;48.812;8.198;2023-07-22T20:58:24;100120.84;;;23.71
65272;BMP280;51868;48.812;8.198;2023-07-22T21:00:54;100117.31;;;23.70
65272;BMP280;51868;48.812;8.198;2023-07-22T21:03:22;100113.84;;;23.65
65272;BMP280;51868;48.812;8.198;2023-07-22T21:05:54;100125.16;;;23.65
65272;BMP280;51868;48.812;8.198;2023-07-22T21:08:22;100122.38;;;23.61
65272;BMP280;51868;48.812;8.198;2023-07-22T21:10:50;100113.91;;;23.59
65272;BMP280;51868;48.812;8.198;2023-07-22T21:13:18;100113.22;;;23.57
65272;BMP280;51868;48.812;8.198;2023-07-22T21:15:46;100115.38;;;23.54
65272;BMP280;51868;48.812;8.198;2023-07-22T21:18:15;100112.56;;;23.50
65272;BMP280;51868;48.812;8.198;2023-07-22T21:20:44;100104.84;;;23.47
65272;BMP280;51868;48.812;8.198;2023-07-22T21:23:13;100111.25;;;23.43
65272;BMP280;51868;48.812;8.198;2023-07-22T21:25:40;100110.56;;;23.41
65272;BMP280;51868;48.812;8.198;2023-07-22T21:28:09;100108.50;;;23.37
65272;BMP280;51868;48.812;8.198;2023-07-22T21:30:38;100106.41;;;23.33
65272;BMP280;51868;48.812;8.198;2023-07-22T21:33:06;100107.16;;;23.28
65272;BMP280;51868;48.812;8.198;2023-07-22T21:35:36;100102.94;;;23.25
65272;BMP280;51868;48.812;8.198;2023-07-22T21:38:03;100108.66;;;23.21
65272;BMP280;51868;48.812;8.198;2023-07-22T21:40:32;100103.06;;;23.15
65272;BMP280;51868;48.812;8.198;2023-07-22T21:42:59;100110.84;;;23.12
65272;BMP280;51868;48.812;8.198;2023-07-22T21:45:27;100109.47;;;23.09
65272;BMP280;51868;48.812;8.198;2023-07-22T21:47:55;100120.09;;;23.04
65272;BMP280;51868;48.812;8.198;2023-07-22T21:50:23;100123.69;;;23.01
65272;BMP280;51868;48.812;8.198;2023-07-22T21:52:53;100131.50;;;22.96
65272;BMP280;51868;48.812;8.198;2023-07-22T21:55:22;100125.19;;;22.92
65272;BMP280;51868;48.812;8.198;2023-07-22T21:57:52;100129.50;;;22.84
65272;BMP280;51868;48.812;8.198;2023-07-22T22:00:20;100137.31;;;22.80
65272;BMP280;51868;48.812;8.198;2023-07-22T22:02:48;100130.28;;;22.75
65272;BMP280;51868;48.812;8.198;2023-07-22T22:05:16;100137.38;;;22.72
65272;BMP280;51868;48.812;8.198;2023-07-22T22:07:45;100126.81;;;22.68
65272;BMP280;51868;48.812;8.198;2023-07-22T22:10:16;100126.09;;;22.68
65272;BMP280;51868;48.812;8.198;2023-07-22T22:12:44;100126.09;;;22.68
65272;BMP280;51868;48.812;8.198;2023-07-22T22:15:12;100133.19;;;22.65
65272;BMP280;51868;48.812;8.198;2023-07-22T22:17:40;100140.28;;;22.62
65272;BMP280;51868;48.812;8.198;2023-07-22T22:20:23;100138.13;;;22.62
65272;BMP280;51868;48.812;8.198;2023-07-22T22:22:51;100143.09;;;22.64
65272;BMP280;51868;48.812;8.198;2023-07-22T22:25:21;100140.28;;;22.62
65272;BMP280;51868;48.812;8.198;2023-07-22T22:27:49;100128.28;;;22.57
65272;BMP280;51868;48.812;8.198;2023-07-22T22:30:16;100138.19;;;22.54
65272;BMP280;51868;48.812;8.198;2023-07-22T22:32:45;100138.94;;;22.52
65272;BMP280;51868;48.812;8.198;2023-07-22T22:35:12;100138.97;;;22.44
65272;BMP280;51868;48.812;8.198;2023-07-22T22:37:40;100143.97;;;22.36
65272;BMP280;51868;48.812;8.198;2023-07-22T22:40:09;100147.56;;;22.26
65272;BMP280;51868;48.812;8.198;2023-07-22T22:42:39;100139.09;;;22.20
65272;BMP280;51868;48.812;8.198;2023-07-22T22:45:07;100140.50;;;22.19
65272;BMP280;51868;48.812;8.198;2023-07-22T22:47:35;100140.53;;;22.15
65272;BMP280;51868;48.812;8.198;2023-07-22T22:50:03;100137.72;;;22.13
65272;BMP280;51868;48.812;8.198;2023-07-22T22:52:31;100129.97;;;22.07
65272;BMP280;51868;48.812;8.198;2023-07-22T22:55:01;100131.44;;;22.02
65272;BMP280;51868;48.812;8.198;2023-07-22T22:57:29;100127.88;;;21.99
65272;BMP280;51868;48.812;8.198;2023-07-22T22:59:59;100132.88;;;21.95
65272;BMP280;51868;48.812;8.198;2023-07-22T23:02:27;100132.88;;;21.91
65272;BMP280;51868;48.812;8.198;2023-07-22T23:04:55;100136.44;;;21.85
65272;BMP280;51868;48.812;8.198;2023-07-22T23:07:23;100127.97;;;21.79
65272;BMP280;51868;48.812;8.198;2023-07-22T23:09:51;100125.16;;;21.77
65272;BMP280;51868;48.812;8.198;2023-07-22T23:12:19;100132.94;;;21.78
65272;BMP280;51868;48.812;8.198;2023-07-22T23:14:47;100125.84;;;21.82
65272;BMP280;51868;48.812;8.198;2023-07-22T23:17:18;100132.88;;;21.87
65272;BMP280;51868;48.812;8.198;2023-07-22T23:19:48;100127.94;;;21.89
65272;BMP280;51868;48.812;8.198;2023-07-22T23:22:16;100123.69;;;21.88
65272;BMP280;51868;48.812;8.198;2023-07-22T23:24:43;100128.66;;;21.90
65272;BMP280;51868;48.812;8.198;2023-07-22T23:27:11;100122.25;;;21.91
65272;BMP280;51868;48.812;8.198;2023-07-22T23:29:39;100132.16;;;21.94
65272;BMP280;51868;48.812;8.198;2023-07-22T23:32:07;100130.75;;;21.93
65272;BMP280;51868;48.812;8.198;2023-07-22T23:34:37;100129.34;;;21.90
65272;BMP280;51868;48.812;8.198;2023-07-22T23:37:05;100129.34;;;21.88
65272;BMP280;51868;48.812;8.198;2023-07-22T23:39:33;100118.75;;;21.85
65272;BMP280;51868;48.812;8.198;2023-07-22T23:42:01;100123.03;;;21.82
65272;BMP280;51868;48.812;8.198;2023-07-22T23:44:29;100132.19;;;21.80
65272;BMP280;51868;48.812;8.198;2023-07-22T23:46:57;100127.28;;;21.78
65272;BMP280;51868;48.812;8.198;2023-07-22T23:49:25;100122.31;;;21.77
65272;BMP280;51868;48.812;8.198;2023-07-22T23:51:55;100124.44;;;21.76
65272;BMP280;51868;48.812;8.198;2023-07-22T23:54:23;100125.16;;;21.73
65272;BMP280;51868;48.812;8.198;2023-07-22T23:56:52;100116.72;;;21.65
65272;BMP280;51868;48.812;8.198;2023-07-22T23:59:20;100118.16;;;21.60
